Time;durP1;ratioP1;P1;durP2;ratioP2;P2;SDS_P1;SDS_P2;PMS_P1;PMS_P2;Temp;Humidity;BMP_temperature;BMP_pressure;BME280_temperature;BME280_humidity;BME280_pressure;Samples;Min_cycle;Max_cycle;Signal;HPM_P1;HPM_P2
2023/05/16 00:04:04;;;;;;;9.05;4.00;;;;;;;20.15;58.63;96359.38;10420673;28;20046;-54
2023/05/16 00:09:23;;;;;;;8.23;3.83;;;;;;;20.15;58.55;96348.56;10404494;28;20056;-54
2023/05/16 00:14:43;;;;;;;8.57;4.20;;;;;;;20.14;58.53;96352.38;10383726;28;20076;-55
2023/05/16 00:20:06;;;;;;;10.82;4.13;;;;;;;20.14;58.36;96346.97;10432017;28;20053;-54
2023/05/16 00:25:26;;;;;;;8.93;3.95;;;;;;;20.12;58.38;96341.13;10431712;28;20053;-54
2023/05/16 00:30:46;;;;;;;7.47;3.42;;;;;;;20.11;58.17;96340.34;10419006;28;20050;-55
2023/05/16 00:36:06;;;;;;;9.07;4.15;;;;;;;20.11;58.15;96336.81;10425702;28;20049;-54
2023/05/16 00:41:25;;;;;;;6.70;3.70;;;;;;;20.10;58.20;96333.34;10425491;28;20401;-55
2023/05/16 00:46:45;;;;;;;7.90;3.90;;;;;;;20.09;58.00;96334.50;10430761;28;20096;-54
2023/05/16 00:52:05;;;;;;;6.07;3.63;;;;;;;20.10;58.23;96335.28;10403972;28;20076;-54
2023/05/16 00:57:24;;;;;;;6.90;3.63;;;;;;;20.09;58.02;96339.09;10430639;28;20037;-54
2023/05/16 01:02:44;;;;;;;7.10;4.00;;;;;;;20.08;57.99;96342.94;10417061;28;20418;-54
2023/05/16 01:08:04;;;;;;;6.40;3.75;;;;;;;20.07;57.96;96334.03;10405824;28;20089;-54
2023/05/16 01:13:32;;;;;;;6.40;3.55;;;;;;;20.06;57.96;96337.06;10430157;28;20041;-54
2023/05/16 01:19:17;;;;;;;6.20;3.90;;;;;;;20.06;57.88;96345.97;10429989;28;20052;-54
2023/05/16 01:24:49;;;;;;;7.78;3.50;;;;;;;20.05;57.79;96333.59;10394467;28;20481;-55
2023/05/16 01:30:14;;;;;;;4.95;3.15;;;;;;;20.06;57.77;96339.78;10399158;28;20038;-54
2023/05/16 01:36:09;;;;;;;6.90;3.30;;;;;;;20.04;57.81;96337.41;10391113;28;20060;-54
2023/05/16 01:41:41;;;;;;;5.20;3.25;;;;;;;20.04;57.89;96347.44;10385806;28;20057;-54
2023/05/16 01:47:10;;;;;;;5.75;3.30;;;;;;;20.02;57.66;96352.41;10428990;28;20042;-54
2023/05/16 01:52:45;;;;;;;4.47;3.17;;;;;;;20.03;57.77;96362.06;10377835;28;20053;-54
2023/05/16 01:58:06;;;;;;;5.90;3.20;;;;;;;20.01;57.66;96367.81;10413540;28;20048;-54
2023/05/16 02:03:26;;;;;;;6.28;2.92;;;;;;;20.01;57.80;96361.63;10426582;28;20049;-54
2023/05/16 02:08:46;;;;;;;7.55;3.53;;;;;;;20.00;57.71;96362.75;10428024;28;20047;-54
2023/05/16 02:14:06;;;;;;;6.38;3.05;;;;;;;19.99;57.67;96358.47;10387888;28;20087;-54
2023/05/16 02:19:25;;;;;;;5.15;3.30;;;;;;;19.99;57.82;96355.75;10398716;28;20044;-54
2023/05/16 02:24:44;;;;;;;4.20;3.00;;;;;;;19.98;57.93;96348.78;10390237;28;20418;-54
2023/05/16 02:30:05;;;;;;;4.05;2.88;;;;;;;19.98;57.82;96349.56;10386933;28;20034;-54
2023/05/16 02:35:25;;;;;;;4.72;2.90;;;;;;;19.98;57.92;96343.38;10400628;28;20049;-54
2023/05/16 02:40:48;;;;;;;5.65;2.95;;;;;;;19.95;57.93;96353.75;10415924;28;20398;-54
2023/05/16 02:46:32;;;;;;;4.25;2.63;;;;;;;19.94;57.78;96360.28;10396735;28;20406;-54
2023/05/16 02:51:51;;;;;;;4.15;2.88;;;;;;;19.95;57.79;96371.88;10380362;28;20058;-54
2023/05/16 02:57:11;;;;;;;5.05;2.92;;;;;;;19.94;57.75;96371.09;10376621;28;20161;-54
2023/05/16 03:02:31;;;;;;;4.60;2.53;;;;;;;19.93;57.86;96374.13;10412655;28;20067;-54
2023/05/16 03:07:50;;;;;;;5.38;2.85;;;;;;;19.93;57.82;96383.03;10423054;28;20453;-55
2023/05/16 03:13:09;;;;;;;5.05;2.95;;;;;;;19.92;57.77;96377.97;10378678;28;20100;-54
2023/05/16 03:18:29;;;;;;;4.13;2.65;;;;;;;19.90;57.74;96389.09;10404039;28;20038;-54
2023/05/16 03:23:49;;;;;;;4.65;2.50;;;;;;;19.89;57.81;96387.50;10396954;28;20042;-54
2023/05/16 03:29:09;;;;;;;4.97;2.58;;;;;;;19.90;57.76;96397.22;10400682;28;20042;-54
2023/05/16 03:34:28;;;;;;;3.63;2.63;;;;;;;19.89;57.74;96401.03;10425311;28;20045;-54
2023/05/16 03:39:48;;;;;;;5.03;2.70;;;;;;;19.88;57.81;96404.88;10412020;28;20057;-54
2023/05/16 03:45:07;;;;;;;3.63;2.47;;;;;;;19.87;57.77;96421.41;10386453;28;20075;-54
2023/05/16 03:50:27;;;;;;;3.78;2.72;;;;;;;19.88;57.68;96431.13;10418090;28;20498;-54
2023/05/16 03:55:47;;;;;;;4.35;2.47;;;;;;;19.87;57.76;96429.53;10432421;28;20052;-54
2023/05/16 04:01:06;;;;;;;5.20;2.63;;;;;;;19.85;57.82;96432.56;10432549;28;20053;-54
2023/05/16 04:06:26;;;;;;;3.47;2.40;;;;;;;19.85;57.83;96429.84;10433059;28;20423;-54
2023/05/16 04:11:45;;;;;;;4.03;2.70;;;;;;;19.85;57.48;96429.84;10410902;28;20410;-46
2023/05/16 04:17:04;;;;;;;3.72;2.50;;;;;;;19.84;57.96;96425.59;10397551;28;20061;-46
2023/05/16 04:22:24;;;;;;;4.35;2.60;;;;;;;19.84;58.04;96425.59;10411393;28;20494;-49
2023/05/16 04:27:44;;;;;;;3.95;2.70;;;;;;;19.85;57.90;96423.66;10383500;28;20054;-45
2023/05/16 04:33:03;;;;;;;5.25;2.47;;;;;;;19.84;57.97;96424.81;10392206;28;20049;-50
2023/05/16 04:38:23;;;;;;;3.45;2.55;;;;;;;19.86;57.88;96425.25;10403185;28;20049;-50
2023/05/16 04:43:43;;;;;;;5.25;2.30;;;;;;;19.84;57.55;96441.81;10401251;28;20497;-50
2023/05/16 04:49:03;;;;;;;3.63;2.40;;;;;;;19.83;57.24;96434.81;10410061;28;20049;-47
2023/05/16 04:54:22;;;;;;;5.07;2.45;;;;;;;19.84;57.15;96441.81;10404945;28;20057;-49
2023/05/16 04:59:43;;;;;;;16.95;5.57;;;;;;;19.60;52.32;96436.28;10412367;28;20073;-50
2023/05/16 05:05:04;;;;;;;10.25;4.00;;;;;;;19.66;54.03;96435.78;10402299;28;20037;-51
2023/05/16 05:10:24;;;;;;;8.68;3.60;;;;;;;19.71;54.72;96438.28;10410417;28;20076;-52
2023/05/16 05:15:43;;;;;;;6.22;3.33;;;;;;;19.74;55.11;96442.25;10400733;28;20057;-49
2023/05/16 05:21:03;;;;;;;6.50;3.55;;;;;;;19.75;55.38;96433.00;10385678;28;20041;-51
2023/05/16 05:26:25;;;;;;;8.35;4.05;;;;;;;19.76;55.51;96426.47;10372047;28;20053;-50
2023/05/16 05:31:44;;;;;;;8.40;4.07;;;;;;;19.76;55.56;96429.19;10423433;28;20049;-51
2023/05/16 05:37:03;;;;;;;11.57;4.18;;;;;;;19.76;55.58;96421.06;10416200;28;20046;-47
2023/05/16 05:42:23;;;;;;;8.25;3.88;;;;;;;19.75;55.59;96428.38;10407156;28;20046;-52
2023/05/16 05:47:43;;;;;;;12.10;4.07;;;;;;;19.74;55.57;96432.22;10388872;28;20053;-50
2023/05/16 05:53:02;;;;;;;11.13;4.47;;;;;;;19.75;55.63;96427.59;10388574;28;20045;-51
2023/05/16 05:58:22;;;;;;;10.15;4.60;;;;;;;19.75;55.62;96427.59;10399546;28;20046;-51
2023/05/16 06:03:42;;;;;;;9.57;4.30;;;;;;;19.73;55.61;96424.44;10411946;28;20108;-50
2023/05/16 06:09:01;;;;;;;10.77;4.40;;;;;;;19.73;55.69;96427.91;10428189;28;20383;-51
2023/05/16 06:14:20;;;;;;;5.68;3.20;;;;;;;19.73;55.81;96430.63;10392481;28;20152;-48
2023/05/16 06:19:40;;;;;;;9.05;5.57;;;;;;;19.59;51.65;96440.13;10417969;28;20085;-50
2023/05/16 06:25:00;;;;;;;11.23;6.00;;;;;;;19.55;52.33;96438.09;10413694;28;20056;-50
2023/05/16 06:30:19;;;;;;;8.38;4.53;;;;;;;19.60;53.15;96433.59;10425686;28;20045;-50
2023/05/16 06:35:39;;;;;;;7.90;3.80;;;;;;;19.63;54.37;96439.13;10406683;28;20045;-50
2023/05/16 06:40:58;;;;;;;5.75;4.15;;;;;;;19.65;54.80;96438.81;10404888;28;20060;-48
2023/05/16 06:46:18;;;;;;;6.82;4.40;;;;;;;19.66;54.86;96448.47;10413609;28;20049;-50
2023/05/16 06:51:37;;;;;;;4.88;2.60;;;;;;;19.67;54.90;96447.38;10415715;28;20065;-50
2023/05/16 06:56:57;;;;;;;3.97;2.58;;;;;;;19.68;54.86;96454.34;10412492;28;20050;-50
2023/05/16 07:02:16;;;;;;;4.85;2.75;;;;;;;19.67;55.03;96450.06;10426722;28;20065;-51
2023/05/16 07:07:36;;;;;;;4.75;2.88;;;;;;;19.68;55.09;96443.53;10426445;28;20044;-48
2023/05/16 07:12:55;;;;;;;5.10;2.90;;;;;;;19.68;55.09;96438.13;10400272;28;20490;-51
2023/05/16 07:18:15;;;;;;;6.50;3.00;;;;;;;19.67;55.18;96442.75;10413369;28;20038;-49
2023/05/16 07:23:34;;;;;;;6.43;3.50;;;;;;;19.68;55.36;96433.53;10388811;28;20101;-50
2023/05/16 07:28:54;;;;;;;5.53;3.13;;;;;;;19.69;55.40;96445.13;10416836;28;20490;-49
2023/05/16 07:34:14;;;;;;;4.47;3.10;;;;;;;19.68;55.53;96454.34;10417400;28;20100;-51
2023/05/16 07:39:33;;;;;;;5.65;3.22;;;;;;;19.68;55.60;96460.53;10420968;28;20552;-50
2023/05/16 07:44:52;;;;;;;5.72;3.00;;;;;;;19.68;55.65;96462.44;10393610;28;20042;-50
2023/05/16 07:50:11;;;;;;;4.78;3.50;;;;;;;19.68;55.73;96476.75;10386462;28;20605;-49
2023/05/16 07:55:31;;;;;;;6.70;3.00;;;;;;;19.68;55.74;96473.25;10431104;28;20382;-50
2023/05/16 08:00:50;;;;;;;7.28;3.33;;;;;;;19.68;55.79;96479.47;10408961;28;20076;-51
2023/05/16 08:06:10;;;;;;;4.80;2.95;;;;;;;19.68;55.93;96486.75;10433066;28;20034;-51
2023/05/16 08:11:30;;;;;;;4.85;2.70;;;;;;;19.69;55.94;96485.66;10411889;28;20045;-50
2023/05/16 08:16:49;;;;;;;6.13;3.25;;;;;;;19.70;55.89;96489.94;10418950;28;20052;-48
2023/05/16 08:22:08;;;;;;;5.72;3.33;;;;;;;19.68;56.05;96500.28;10427689;28;20041;-49
2023/05/16 08:27:28;;;;;;;3.63;3.00;;;;;;;19.69;56.02;96513.47;10416700;28;20041;-48
2023/05/16 08:32:48;;;;;;;3.08;2.60;;;;;;;19.69;56.02;96515.38;10391966;28;20046;-51
2023/05/16 08:38:07;;;;;;;4.38;2.53;;;;;;;19.68;56.09;96513.78;10426145;28;20049;-50
2023/05/16 08:43:27;;;;;;;4.38;2.67;;;;;;;19.68;56.07;96514.59;10427951;28;20057;-50
2023/05/16 08:48:50;;;;;;;3.88;2.80;;;;;;;19.70;56.19;96514.28;10386461;28;20061;-50
2023/05/16 08:54:14;;;;;;;4.50;2.70;;;;;;;19.69;56.15;96515.38;10418434;28;20045;-50
2023/05/16 08:59:34;;;;;;;5.28;2.63;;;;;;;19.68;56.17;96527.28;10409574;28;20052;-49
2023/05/16 09:04:56;;;;;;;2.83;2.30;;;;;;;19.68;56.14;96522.69;10390670;28;20402;-51
2023/05/16 09:10:16;;;;;;;3.15;2.28;;;;;;;19.69;56.15;96528.91;10401705;28;20050;-47
2023/05/16 09:15:35;;;;;;;5.88;2.95;;;;;;;19.68;56.23;96530.00;10396012;28;20057;-50
2023/05/16 09:20:54;;;;;;;7.47;2.72;;;;;;;19.67;56.10;96525.72;10416866;28;20052;-50
2023/05/16 09:26:14;;;;;;;3.80;2.65;;;;;;;19.67;56.17;96533.84;10404704;28;20112;-48
2023/05/16 09:31:37;;;;;;;3.13;2.35;;;;;;;19.67;56.26;96533.84;10389604;28;20399;-49
2023/05/16 09:36:56;;;;;;;3.78;2.65;;;;;;;19.67;56.18;96525.72;10394739;28;20053;-50
2023/05/16 09:42:17;;;;;;;3.00;2.28;;;;;;;19.68;56.26;96530.00;10409145;28;20037;-49
2023/05/16 09:47:44;;;;;;;3.67;2.65;;;;;;;19.68;56.28;96524.59;10415948;28;20061;-50
2023/05/16 09:53:04;;;;;;;3.08;2.35;;;;;;;19.66;56.24;96524.13;10428337;28;20045;-50
2023/05/16 09:58:28;;;;;;;2.90;2.50;;;;;;;19.68;56.28;96527.28;10428610;28;20033;-50
2023/05/16 10:03:47;;;;;;;5.47;2.30;;;;;;;19.67;56.32;96521.13;10428250;28;20041;-50
2023/05/16 10:09:11;;;;;;;2.53;2.10;;;;;;;19.67;56.27;96509.50;10428146;28;20041;-50
2023/05/16 10:14:33;;;;;;;2.83;1.83;;;;;;;19.68;56.32;96511.09;10427504;28;20049;-51
2023/05/16 10:19:53;;;;;;;4.28;2.45;;;;;;;19.66;56.29;96508.72;10394221;28;20038;-50
2023/05/16 10:25:28;;;;;;;2.67;2.47;;;;;;;19.66;56.37;96502.53;10399810;28;20041;-50
2023/05/16 10:30:49;;;;;;;2.90;2.20;;;;;;;19.65;56.29;96501.72;10413618;28;20408;-50
2023/05/16 10:36:09;;;;;;;3.35;1.83;;;;;;;19.67;56.36;96504.13;10387221;28;20517;-49
2023/05/16 10:41:30;;;;;;;4.03;2.50;;;;;;;19.66;56.34;96489.00;10412289;28;20489;-50
2023/05/16 10:46:49;;;;;;;2.95;2.20;;;;;;;19.66;56.39;96480.91;10400139;28;20092;-50
2023/05/16 10:52:10;;;;;;;2.65;2.28;;;;;;;19.65;56.38;96463.91;10376250;28;20080;-47
2023/05/16 10:57:32;;;;;;;4.10;2.72;;;;;;;19.66;56.39;96453.88;10426438;28;20080;-50
2023/05/16 11:02:51;;;;;;;2.45;2.13;;;;;;;19.66;56.41;96464.69;10426278;28;20041;-49
2023/05/16 11:08:11;;;;;;;2.25;1.80;;;;;;;19.64;56.36;96462.34;10415115;28;20425;-50
2023/05/16 11:13:31;;;;;;;3.25;2.60;;;;;;;19.65;56.43;96452.31;10390712;28;20042;-50
2023/05/16 11:18:51;;;;;;;2.78;1.90;;;;;;;19.64;56.46;96456.94;10418726;28;20041;-51
2023/05/16 11:24:27;;;;;;;2.55;1.80;;;;;;;19.65;56.41;96458.50;10426322;28;20076;-51
2023/05/16 11:29:47;;;;;;;3.08;2.40;;;;;;;19.64;56.50;96467.75;10374730;28;20059;-48
2023/05/16 11:35:10;;;;;;;2.58;1.80;;;;;;;19.65;56.52;96490.16;10425746;28;20049;-50
2023/05/16 11:40:30;;;;;;;3.63;1.90;;;;;;;19.65;56.38;96515.25;10414621;28;20042;-50
2023/05/16 11:45:54;;;;;;;2.55;2.03;;;;;;;19.64;56.38;96516.38;10385448;28;20482;-51
2023/05/16 11:51:17;;;;;;;1.60;1.50;;;;;;;19.64;56.48;96534.50;10403184;28;20052;-51
2023/05/16 11:56:39;;;;;;;2.83;2.53;;;;;;;19.64;56.44;96539.91;10385484;28;20061;-48
2023/05/16 12:02:03;;;;;;;3.80;2.35;;;;;;;19.64;56.55;96556.09;10385377;28;20548;-50
2023/05/16 12:07:27;;;;;;;2.20;2.00;;;;;;;19.64;56.43;96550.69;10383356;28;20073;-50
2023/05/16 12:12:48;;;;;;;2.45;2.08;;;;;;;19.64;56.41;96553.41;10387777;28;20072;-48
2023/05/16 12:18:09;;;;;;;3.03;2.40;;;;;;;19.63;56.43;96565.34;10406076;28;20034;-50
2023/05/16 12:23:30;;;;;;;2.35;2.00;;;;;;;19.62;56.41;96559.16;10414245;28;20045;-48
2023/05/16 12:28:55;;;;;;;2.60;2.25;;;;;;;19.62;56.32;96552.94;10397724;28;20061;-49
2023/05/16 12:34:20;;;;;;;3.53;2.42;;;;;;;19.63;56.37;96557.25;10402832;28;20045;-50
2023/05/16 12:39:39;;;;;;;2.13;1.83;;;;;;;19.61;56.38;96546.75;10394429;28;20046;-51
2023/05/16 12:44:58;;;;;;;2.60;2.03;;;;;;;19.61;56.31;96538.66;10393331;28;20479;-50
2023/05/16 12:50:18;;;;;;;2.42;2.10;;;;;;;19.61;56.36;96541.34;10421908;28;20057;-50
2023/05/16 12:55:38;;;;;;;2.42;2.00;;;;;;;19.61;56.37;96535.16;10398991;28;20041;-50
2023/05/16 13:00:58;;;;;;;2.65;2.45;;;;;;;19.60;56.31;96533.56;10399898;28;20042;-49
2023/05/16 13:06:18;;;;;;;3.38;2.30;;;;;;;19.60;56.31;96526.28;10401663;28;20425;-50
2023/05/16 13:11:37;;;;;;;2.25;2.00;;;;;;;19.60;56.27;96544.38;10422095;28;20103;-51
2023/05/16 13:16:57;;;;;;;2.30;2.10;;;;;;;19.59;56.28;96538.19;10395959;28;20076;-51
2023/05/16 13:22:16;;;;;;;2.25;2.05;;;;;;;19.59;56.17;96540.91;10416580;28;20084;-50
2023/05/16 13:27:36;;;;;;;2.30;2.10;;;;;;;19.58;56.21;96536.59;10428736;28;20045;-49
2023/05/16 13:32:56;;;;;;;2.15;1.95;;;;;;;19.59;56.21;96553.63;10416579;28;20041;-49
2023/05/16 13:38:15;;;;;;;2.30;2.10;;;;;;;19.59;56.08;96556.31;10429539;28;20398;-51
2023/05/16 13:43:35;;;;;;;1.95;1.75;;;;;;;19.58;56.26;96558.22;10388171;28;20053;-49
2023/05/16 13:48:55;;;;;;;1.98;1.85;;;;;;;19.60;56.13;96579.50;10389156;28;20058;-49
2023/05/16 13:54:14;;;;;;;1.80;1.70;;;;;;;19.58;56.15;96562.84;10408724;28;20041;-48
2023/05/16 13:59:34;;;;;;;1.95;1.65;;;;;;;19.58;56.18;96541.22;10428217;28;20045;-50
2023/05/16 14:04:53;;;;;;;2.13;1.45;;;;;;;19.57;56.15;96556.66;10427905;28;20449;-49
2023/05/16 14:10:13;;;;;;;2.30;2.10;;;;;;;19.56;56.11;96553.16;10426977;28;20038;-49
2023/05/16 14:15:33;;;;;;;2.45;2.00;;;;;;;19.56;56.00;96542.34;10410978;28;20049;-49
2023/05/16 14:20:55;;;;;;;1.90;1.70;;;;;;;19.55;56.04;96543.47;10400341;28;20499;-51
2023/05/16 14:26:15;;;;;;;1.70;1.60;;;;;;;19.55;55.97;96538.06;10405035;28;20103;-49
2023/05/16 14:31:37;;;;;;;1.70;1.60;;;;;;;19.55;55.96;96554.28;10414213;28;20056;-47
2023/05/16 14:36:57;;;;;;;1.88;1.70;;;;;;;19.55;55.97;96570.47;10395541;28;20449;-49
2023/05/16 14:42:17;;;;;;;1.80;1.70;;;;;;;19.54;55.97;96585.13;10418458;28;20046;-51
2023/05/16 14:47:36;;;;;;;1.73;1.63;;;;;;;19.54;55.93;96585.13;10390432;28;20482;-50
2023/05/16 14:52:56;;;;;;;2.45;1.90;;;;;;;19.54;55.82;96595.94;10373430;28;20076;-49
2023/05/16 14:58:16;;;;;;;2.10;1.88;;;;;;;19.53;55.86;96605.16;10406697;28;20049;-47
2023/05/16 15:03:36;;;;;;;2.05;1.85;;;;;;;19.53;55.82;96610.56;10410135;28;20052;-50
2023/05/16 15:08:55;;;;;;;1.70;1.45;;;;;;;19.53;55.88;96605.16;10426004;28;20048;-47
2023/05/16 15:14:14;;;;;;;2.05;1.90;;;;;;;19.52;55.81;96608.97;10425847;28;20045;-50
2023/05/16 15:19:34;;;;;;;1.70;1.60;;;;;;;19.52;55.75;96622.50;10406459;28;20093;-48
2023/05/16 15:24:53;;;;;;;2.05;1.85;;;;;;;19.52;55.75;96614.38;10390591;28;20087;-49
2023/05/16 15:30:13;;;;;;;2.22;1.80;;;;;;;19.52;55.63;96618.97;10396954;28;20042;-50
2023/05/16 15:35:33;;;;;;;4.90;4.40;;;;;;;19.45;52.83;96622.22;10413363;28;20050;-55
2023/05/16 15:40:52;;;;;;;2.17;1.98;;;;;;;19.46;54.63;96623.78;10385457;28;20165;-55
2023/05/16 15:46:12;;;;;;;4.63;3.67;;;;;;;19.44;53.35;96626.00;10386522;28;20069;-56
2023/05/16 15:51:31;;;;;;;3.08;2.45;;;;;;;19.44;53.77;96641.44;10386620;28;20049;-56
2023/05/16 15:56:51;;;;;;;4.55;2.30;;;;;;;19.44;54.88;96644.94;10409881;28;20048;-56
2023/05/16 16:02:11;;;;;;;4.60;2.30;;;;;;;19.47;55.10;96644.28;10433235;28;20046;-56
2023/05/16 16:07:30;;;;;;;1.88;1.75;;;;;;;19.47;55.47;96649.69;10406681;28;20096;-56
2023/05/16 16:13:00;;;;;;;3.63;2.30;;;;;;;19.47;55.61;96649.69;10432375;28;20041;-56
2023/05/16 16:18:20;;;;;;;5.10;2.58;;;;;;;19.48;55.95;96648.59;10422958;28;20038;-55
2023/05/16 16:23:40;;;;;;;5.63;2.63;;;;;;;19.47;56.49;96644.28;10423591;28;20052;-54
2023/05/16 16:29:00;;;;;;;3.95;2.70;;;;;;;19.49;56.88;96643.97;10415951;28;20509;-55
2023/05/16 16:34:19;;;;;;;10.00;2.30;;;;;;;19.46;56.23;96637.28;10407729;28;20053;-56
2023/05/16 16:39:39;;;;;;;4.15;3.08;;;;;;;19.45;56.11;96651.94;10405572;28;20046;-55
2023/05/16 16:44:59;;;;;;;6.90;4.10;;;;;;;19.46;56.86;96644.59;10417414;28;20103;-55
2023/05/16 16:50:18;;;;;;;5.72;4.07;;;;;;;19.44;56.94;96657.66;10413011;28;20054;-55
2023/05/16 16:55:38;;;;;;;3.90;2.60;;;;;;;19.44;56.81;96658.44;10391032;28;20053;-55
2023/05/16 17:00:58;;;;;;;6.90;2.53;;;;;;;19.43;57.44;96664.19;10400199;28;20041;-56
2023/05/16 17:06:18;;;;;;;6.10;3.15;;;;;;;19.45;57.75;96668.13;10401800;28;20093;-55
2023/05/16 17:11:39;;;;;;;3.55;3.05;;;;;;;19.46;58.22;96671.63;10421526;28;20045;-55
2023/05/16 17:16:59;;;;;;;4.03;2.72;;;;;;;19.46;57.87;96682.44;10391093;28;20046;-56
2023/05/16 17:22:20;;;;;;;5.20;2.40;;;;;;;19.45;57.78;96695.16;10395592;28;20053;-56
2023/05/16 17:27:40;;;;;;;4.88;2.75;;;;;;;19.45;57.49;96695.16;10415834;28;20037;-56
2023/05/16 17:33:00;;;;;;;3.90;2.47;;;;;;;19.45;57.48;96681.66;10393145;28;20065;-56
2023/05/16 17:38:20;;;;;;;3.58;2.78;;;;;;;19.44;57.33;96690.06;10389140;28;20045;-56
2023/05/16 17:43:41;;;;;;;4.00;2.65;;;;;;;19.44;57.35;96709.75;10404621;28;20045;-56
2023/05/16 17:49:00;;;;;;;4.57;2.63;;;;;;;19.43;57.17;96707.41;10388363;28;20108;-56
2023/05/16 17:54:21;;;;;;;3.67;2.70;;;;;;;19.43;57.32;96719.00;10428954;28;20052;-56
2023/05/16 17:59:40;;;;;;;1.98;1.70;;;;;;;19.42;57.58;96722.81;10416732;28;20096;-55
2023/05/16 18:05:00;;;;;;;5.70;2.38;;;;;;;19.43;57.99;96732.50;10376562;28;20053;-56
2023/05/16 18:10:19;;;;;;;2.30;1.90;;;;;;;19.44;58.16;96734.09;10405330;28;20049;-56
2023/05/16 18:15:39;;;;;;;8.38;2.42;;;;;;;19.44;58.25;96734.09;10427074;28;20053;-56
2023/05/16 18:20:59;;;;;;;3.08;2.20;;;;;;;19.44;58.43;96734.09;10427287;28;20053;-57
2023/05/16 18:26:18;;;;;;;2.58;1.90;;;;;;;19.43;58.81;96732.50;10425826;28;20052;-56
2023/05/16 18:31:41;;;;;;;3.47;2.00;;;;;;;19.45;58.92;96741.09;10413936;28;20168;-58
2023/05/16 18:37:00;;;;;;;1.60;1.50;;;;;;;19.45;58.91;96743.00;10386124;28;20044;-58
2023/05/16 18:42:20;;;;;;;3.03;2.25;;;;;;;19.44;58.82;96744.88;10420711;28;20045;-57
2023/05/16 18:47:40;;;;;;;1.77;1.23;;;;;;;19.44;58.98;96753.00;10426603;28;20041;-56
2023/05/16 18:53:00;;;;;;;2.88;2.28;;;;;;;19.44;58.96;96761.09;10412647;28;20068;-59
2023/05/16 18:58:20;;;;;;;4.13;2.30;;;;;;;19.44;59.17;96773.81;10412710;28;20045;-58
2023/05/16 19:03:39;;;;;;;4.10;2.30;;;;;;;19.43;59.38;96766.84;10426432;28;20108;-55
2023/05/16 19:08:59;;;;;;;4.28;2.40;;;;;;;19.43;59.41;96756.03;10425570;28;20045;-55
2023/05/16 19:14:19;;;;;;;3.08;2.10;;;;;;;19.43;59.57;96762.22;10424656;28;20049;-55
2023/05/16 19:19:38;;;;;;;4.32;1.95;;;;;;;19.42;58.96;96757.94;10409537;28;20045;-54
2023/05/16 19:24:58;;;;;;;4.60;2.10;;;;;;;19.42;59.26;96766.03;10407960;28;20038;-55
2023/05/16 19:30:17;;;;;;;4.85;2.30;;;;;;;19.43;59.03;96767.63;10434409;28;20046;-54
2023/05/16 19:35:38;;;;;;;4.85;2.50;;;;;;;19.41;59.09;96761.75;10384755;28;20064;-54
2023/05/16 19:40:58;;;;;;;2.55;1.80;;;;;;;19.42;59.07;96770.66;10427520;28;20045;-54
2023/05/16 19:46:18;;;;;;;2.22;2.00;;;;;;;19.41;58.93;96775.28;10420524;28;20049;-54
2023/05/16 19:51:37;;;;;;;2.63;2.20;;;;;;;19.42;59.08;96789.56;10383916;28;20053;-54
2023/05/16 19:56:57;;;;;;;2.17;1.50;;;;;;;19.41;59.25;96786.06;10406250;28;20500;-55
2023/05/16 20:02:17;;;;;;;5.40;2.22;;;;;;;19.40;59.44;96789.88;10409256;28;20409;-55
2023/05/16 20:07:39;;;;;;;2.10;1.90;;;;;;;19.40;59.40;96789.88;10403739;28;20134;-54
2023/05/16 20:12:59;;;;;;;2.08;1.88;;;;;;;19.39;59.38;96787.53;10422611;28;20069;-55
2023/05/16 20:18:18;;;;;;;2.30;2.10;;;;;;;19.40;59.37;96799.91;10425992;28;20038;-54
2023/05/16 20:23:39;;;;;;;2.65;1.90;;;;;;;19.39;59.35;96807.22;10403668;28;20050;-56
2023/05/16 20:28:59;;;;;;;3.40;1.80;;;;;;;19.39;59.35;96798.31;10428982;28;20120;-56
2023/05/16 20:34:21;;;;;;;3.72;1.90;;;;;;;19.38;59.22;96797.50;10430686;28;20406;-55
2023/05/16 20:39:41;;;;;;;2.45;1.90;;;;;;;19.38;59.11;96800.22;10402302;28;20125;-55
2023/05/16 20:45:01;;;;;;;2.00;1.80;;;;;;;19.37;59.03;96795.94;10415922;28;20053;-55
2023/05/16 20:50:21;;;;;;;2.42;1.80;;;;;;;19.36;59.04;96797.81;10384933;28;20057;-55
2023/05/16 20:55:40;;;;;;;2.95;2.05;;;;;;;19.37;59.02;96793.25;10413423;28;20045;-55
2023/05/16 21:01:01;;;;;;;1.95;1.70;;;;;;;19.36;59.18;96791.63;10408993;28;20045;-55
2023/05/16 21:06:20;;;;;;;2.92;1.90;;;;;;;19.36;59.16;96788.94;10417791;28;20072;-56
2023/05/16 21:11:40;;;;;;;2.47;1.95;;;;;;;19.36;59.30;96794.34;10430410;28;20441;-55
2023/05/16 21:17:00;;;;;;;1.88;1.73;;;;;;;19.36;59.38;96794.34;10390368;28;20053;-55
2023/05/16 21:22:19;;;;;;;2.03;1.70;;;;;;;19.35;59.36;96811.69;10417201;28;20057;-55
2023/05/16 21:27:38;;;;;;;2.55;1.70;;;;;;;19.35;59.37;96814.38;10428976;28;20046;-55
2023/05/16 21:32:58;;;;;;;3.33;1.88;;;;;;;19.34;59.25;96821.66;10409028;28;20033;-55
2023/05/16 21:38:21;;;;;;;2.85;1.73;;;;;;;19.33;59.24;96814.69;10429525;28;20101;-55
2023/05/16 21:43:41;;;;;;;2.17;1.80;;;;;;;19.34;59.37;96812.78;10415988;28;20449;-55
2023/05/16 21:49:00;;;;;;;1.65;1.45;;;;;;;19.34;59.41;96812.78;10426572;28;20056;-55
2023/05/16 21:54:20;;;;;;;1.75;1.65;;;;;;;19.33;59.39;96811.22;10428663;28;20096;-55
2023/05/16 21:59:39;;;;;;;1.70;1.60;;;;;;;19.32;59.36;96820.41;10424522;28;20042;-55
2023/05/16 22:04:58;;;;;;;2.28;1.80;;;;;;;19.31;59.36;96819.63;10388298;28;20042;-55
2023/05/16 22:10:18;;;;;;;1.90;1.70;;;;;;;19.31;59.33;96827.72;10399543;28;20079;-55
2023/05/16 22:15:38;;;;;;;2.13;1.60;;;;;;;19.31;59.41;96837.75;10381103;28;20057;-55
2023/05/16 22:20:57;;;;;;;2.00;1.55;;;;;;;19.30;59.47;96823.44;10399136;28;20041;-55
2023/05/16 22:26:17;;;;;;;1.50;1.40;;;;;;;19.29;59.42;96832.66;10402748;28;20042;-55
2023/05/16 22:31:36;;;;;;;2.13;1.58;;;;;;;19.30;59.47;96833.44;10398428;28;20049;-55
2023/05/16 22:36:55;;;;;;;1.70;1.60;;;;;;;19.29;59.47;96826.47;10407619;28;20045;-55
2023/05/16 22:42:15;;;;;;;1.77;1.60;;;;;;;19.29;59.36;96829.97;10412740;28;20037;-55
2023/05/16 22:47:34;;;;;;;1.98;1.40;;;;;;;19.28;59.51;96831.06;10389943;28;20057;-55
2023/05/16 22:52:54;;;;;;;1.40;1.30;;;;;;;19.28;59.52;96835.69;10386672;28;20050;-55
2023/05/16 22:58:14;;;;;;;1.70;1.60;;;;;;;19.26;59.41;96822.50;10391018;28;20037;-55
2023/05/16 23:03:33;;;;;;;1.70;1.60;;;;;;;19.26;59.44;96824.41;10405724;28;20489;-55
2023/05/16 23:08:53;;;;;;;1.63;1.52;;;;;;;19.26;59.41;96840.63;10412303;28;20044;-55
2023/05/16 23:14:12;;;;;;;1.40;1.30;;;;;;;19.27;59.30;96836.81;10379191;28;20045;-55
2023/05/16 23:19:32;;;;;;;1.80;1.48;;;;;;;19.25;59.35;96839.00;10386194;28;20116;-55
2023/05/16 23:24:51;;;;;;;1.50;1.40;;;;;;;19.24;59.44;96846.31;10418299;28;20489;-55
2023/05/16 23:30:11;;;;;;;1.20;1.10;;;;;;;19.24;59.37;96846.31;10388706;28;20049;-55
2023/05/16 23:35:30;;;;;;;2.00;1.50;;;;;;;19.24;59.38;96842.84;10413216;28;20557;-55
2023/05/16 23:40:50;;;;;;;1.63;1.38;;;;;;;19.23;59.36;96846.63;10402759;28;20045;-56
2023/05/16 23:46:10;;;;;;;1.40;1.30;;;;;;;19.23;59.22;96849.34;10425588;28;20508;-55
2023/05/16 23:51:30;;;;;;;1.30;1.20;;;;;;;19.23;59.32;96858.25;10392005;28;20104;-55
2023/05/16 23:56:49;;;;;;;1.35;1.25;;;;;;;19.22;59.43;96853.16;10399820;28;20045;-55
